Time;durP1;ratioP1;P1;durP2;ratioP2;P2;SDS_P1;SDS_P2;PMS_P1;PMS_P2;Temp;Humidity;BMP_temperature;BMP_pressure;BME280_temperature;BME280_humidity;BME280_pressure;Samples;Min_cycle;Max_cycle;Signal;HPM_P1;HPM_P2
2022/08/21 00:02:17;;;;;;;11.40;8.33;;;21.20;99.90;;;;;;5136364;27;20537;-60
2022/08/21 00:04:44;;;;;;;9.93;9.00;;;21.20;99.90;;;;;;5136359;27;20481;-60
2022/08/21 00:07:11;;;;;;;10.00;9.00;;;21.20;99.90;;;;;;5136299;27;20781;-60
2022/08/21 00:09:39;;;;;;;13.93;9.10;;;21.10;99.90;;;;;;5135309;27;20447;-60
2022/08/21 00:12:06;;;;;;;10.30;8.60;;;21.10;99.90;;;;;;5135870;27;20477;-60
2022/08/21 00:14:34;;;;;;;9.50;8.57;;;21.10;99.90;;;;;;5136191;27;20540;-60
2022/08/21 00:17:01;;;;;;;11.70;8.23;;;21.20;99.90;;;;;;5136146;27;20822;-60
2022/08/21 00:19:28;;;;;;;9.23;8.37;;;21.20;99.90;;;;;;5135966;27;20462;-60
2022/08/21 00:21:55;;;;;;;13.33;8.10;;;21.20;99.90;;;;;;5135936;27;20443;-60
2022/08/21 00:24:23;;;;;;;9.00;8.10;;;21.20;99.90;;;;;;5135801;27;20961;-60
2022/08/21 00:26:51;;;;;;;8.97;8.03;;;21.20;99.90;;;;;;5136041;27;20448;-60
2022/08/21 00:29:18;;;;;;;9.13;8.30;;;21.20;99.90;;;;;;5135917;27;20445;-60
2022/08/21 00:31:45;;;;;;;9.40;8.70;;;21.10;99.90;;;;;;5135680;27;20472;-60
2022/08/21 00:34:13;;;;;;;9.57;8.77;;;21.10;99.90;;;;;;5135718;27;20441;-60
2022/08/21 00:36:40;;;;;;;9.50;7.73;;;21.10;99.90;;;;;;5135686;27;20773;-60
2022/08/21 00:39:08;;;;;;;8.40;7.70;;;21.10;99.90;;;;;;5135504;27;20441;-60
2022/08/21 00:41:37;;;;;;;9.13;8.43;;;21.10;99.90;;;;;;5135878;27;20440;-60
2022/08/21 00:44:07;;;;;;;8.63;8.03;;;21.10;99.90;;;;;;5135655;27;20441;-60
2022/08/21 00:46:33;;;;;;;9.43;8.67;;;21.10;99.90;;;;;;5135848;27;20535;-60
2022/08/21 00:49:00;;;;;;;9.23;8.33;;;21.10;99.90;;;;;;5135444;27;20464;-60
2022/08/21 00:51:33;;;;;;;10.50;8.77;;;21.10;99.90;;;;;;5135251;27;20531;-61
2022/08/21 00:54:02;;;;;;;9.20;8.33;;;21.10;99.90;;;;;;5135562;27;20536;-60
2022/08/21 00:56:29;;;;;;;8.73;7.83;;;21.10;99.90;;;;;;5135400;27;20451;-60
2022/08/21 00:58:57;;;;;;;9.67;8.17;;;21.00;99.90;;;;;;5135300;27;20489;-60
2022/08/21 01:01:25;;;;;;;8.53;7.93;;;21.10;99.90;;;;;;5135177;27;20444;-60
2022/08/21 01:03:52;;;;;;;9.30;8.60;;;21.10;99.90;;;;;;5135057;27;20491;-60
2022/08/21 01:06:18;;;;;;;7.97;7.27;;;21.10;99.90;;;;;;5135268;27;20451;-60
2022/08/21 01:08:46;;;;;;;8.03;7.17;;;21.00;99.90;;;;;;5135182;27;20805;-60
2022/08/21 01:11:13;;;;;;;7.33;6.77;;;21.10;99.90;;;;;;5135093;27;20531;-60
2022/08/21 01:13:45;;;;;;;8.27;7.43;;;21.10;99.90;;;;;;5134838;27;20491;-60
2022/08/21 01:16:14;;;;;;;7.90;7.13;;;21.10;99.90;;;;;;5134860;27;20448;-60
2022/08/21 01:18:43;;;;;;;8.93;8.03;;;21.10;99.90;;;;;;5134711;27;20548;-60
2022/08/21 01:21:13;;;;;;;7.87;7.20;;;21.10;99.90;;;;;;5134692;27;20862;-60
2022/08/21 01:23:43;;;;;;;7.53;6.93;;;21.00;99.90;;;;;;5134752;27;20477;-60
2022/08/21 01:26:11;;;;;;;8.10;7.50;;;21.00;99.90;;;;;;5135339;27;20455;-60
2022/08/21 01:28:42;;;;;;;6.50;5.97;;;21.00;99.90;;;;;;5134614;27;20451;-60
2022/08/21 01:31:11;;;;;;;7.43;6.73;;;21.00;99.90;;;;;;5134761;27;20502;-60
2022/08/21 01:33:37;;;;;;;7.30;6.70;;;21.00;99.90;;;;;;5134657;27;20563;-60
2022/08/21 01:36:05;;;;;;;6.83;6.23;;;20.90;99.90;;;;;;5134845;27;20452;-60
2022/08/21 01:38:33;;;;;;;8.37;7.67;;;21.00;99.90;;;;;;5134887;27;20444;-60
2022/08/21 01:40:59;;;;;;;9.03;7.07;;;20.90;99.90;;;;;;5134440;27;20453;-60
2022/08/21 01:43:26;;;;;;;7.97;6.43;;;20.90;99.90;;;;;;5134298;27;20448;-60
2022/08/21 01:45:52;;;;;;;7.90;7.30;;;20.90;99.90;;;;;;5134503;27;20445;-60
2022/08/21 01:48:19;;;;;;;8.00;5.93;;;20.90;99.90;;;;;;5134307;27;20504;-61
2022/08/21 01:50:45;;;;;;;8.63;7.07;;;20.90;99.90;;;;;;5134351;27;20445;-60
2022/08/21 01:53:13;;;;;;;10.10;9.10;;;20.90;99.90;;;;;;5134148;27;20482;-60
2022/08/21 01:55:41;;;;;;;7.80;7.10;;;20.90;99.90;;;;;;5134290;27;20527;-60
2022/08/21 01:58:07;;;;;;;7.00;6.50;;;20.90;99.90;;;;;;5134043;27;20444;-60
2022/08/21 02:00:34;;;;;;;13.03;8.60;;;20.90;99.90;;;;;;5134360;27;20532;-60
2022/08/21 02:03:01;;;;;;;7.03;6.53;;;20.80;99.90;;;;;;5134235;27;20540;-60
2022/08/21 02:05:27;;;;;;;7.20;6.63;;;20.90;99.90;;;;;;5134131;27;20499;-60
2022/08/21 02:07:55;;;;;;;6.33;5.90;;;20.90;99.90;;;;;;5134114;27;20445;-60
2022/08/21 02:10:25;;;;;;;6.90;6.40;;;20.80;99.90;;;;;;5133968;27;20444;-60
2022/08/21 02:12:53;;;;;;;6.80;5.90;;;20.80;99.90;;;;;;5133784;27;20527;-60
2022/08/21 02:15:20;;;;;;;7.07;6.43;;;20.80;99.90;;;;;;5134206;27;20451;-60
2022/08/21 02:17:50;;;;;;;6.97;6.23;;;20.80;99.90;;;;;;5133973;27;20523;-60
2022/08/21 02:20:19;;;;;;;8.40;7.70;;;20.80;99.90;;;;;;5133981;28;20803;-60
2022/08/21 02:22:46;;;;;;;6.00;5.60;;;20.80;99.90;;;;;;5134020;28;20785;-60
2022/08/21 02:25:12;;;;;;;6.63;6.03;;;20.80;99.90;;;;;;5133799;28;20440;-60
2022/08/21 02:27:41;;;;;;;6.43;5.80;;;20.80;99.90;;;;;;5134073;28;20923;-60
2022/08/21 02:30:12;;;;;;;7.43;5.50;;;20.70;99.90;;;;;;5133897;28;20517;-60
2022/08/21 02:32:39;;;;;;;5.60;5.20;;;20.60;99.90;;;;;;5135840;27;20479;-60
2022/08/21 02:35:06;;;;;;;6.00;5.60;;;20.60;99.90;;;;;;5138023;27;20479;-60
2022/08/21 02:37:33;;;;;;;7.00;5.60;;;20.60;99.90;;;;;;5138023;27;20878;-60
2022/08/21 02:40:00;;;;;;;6.03;5.00;;;20.60;99.90;;;;;;5137841;27;20453;-60
2022/08/21 02:42:26;;;;;;;6.00;5.33;;;20.50;99.90;;;;;;5138038;27;20539;-60
2022/08/21 02:44:53;;;;;;;7.10;5.73;;;20.50;99.90;;;;;;5137962;27;20536;-60
2022/08/21 02:47:20;;;;;;;5.53;5.13;;;20.50;99.90;;;;;;5137838;27;20478;-60
2022/08/21 02:49:47;;;;;;;5.40;5.00;;;20.40;99.90;;;;;;5137904;27;20531;-60
2022/08/21 02:52:14;;;;;;;6.30;5.77;;;20.40;99.90;;;;;;5137766;27;20440;-60
2022/08/21 02:54:41;;;;;;;5.80;5.30;;;20.30;99.90;;;;;;5137943;27;20484;-60
2022/08/21 02:57:07;;;;;;;5.83;5.33;;;20.30;99.90;;;;;;5137800;27;20451;-60
2022/08/21 02:59:34;;;;;;;6.67;5.90;;;20.20;99.90;;;;;;5137766;27;20448;-60
2022/08/21 03:02:00;;;;;;;6.70;6.20;;;20.20;99.90;;;;;;5137660;27;20448;-60
2022/08/21 03:04:28;;;;;;;6.40;5.83;;;20.20;99.90;;;;;;5137503;27;20476;-60
2022/08/21 03:06:55;;;;;;;6.63;6.10;;;20.10;99.90;;;;;;5137393;27;20812;-60
2022/08/21 03:09:21;;;;;;;6.27;5.67;;;20.10;99.90;;;;;;5137554;27;20448;-60
2022/08/21 03:11:48;;;;;;;6.00;5.43;;;20.10;99.90;;;;;;5137590;27;20444;-60
2022/08/21 03:14:14;;;;;;;6.60;6.00;;;20.10;99.90;;;;;;5137291;27;20480;-60
2022/08/21 03:16:41;;;;;;;5.70;5.30;;;20.10;99.90;;;;;;5137270;27;20491;-60
2022/08/21 03:19:08;;;;;;;5.33;4.97;;;20.10;99.90;;;;;;5137192;27;20518;-60
2022/08/21 03:21:36;;;;;;;8.33;5.57;;;20.10;99.90;;;;;;5136992;27;20445;-60
2022/08/21 03:24:04;;;;;;;5.50;5.00;;;20.10;99.90;;;;;;5137355;27;20460;-60
2022/08/21 03:26:30;;;;;;;5.03;4.73;;;20.10;99.90;;;;;;5137180;27;20869;-60
2022/08/21 03:28:57;;;;;;;5.73;4.70;;;20.10;99.90;;;;;;5137110;27;20450;-60
2022/08/21 03:31:28;;;;;;;6.77;4.97;;;20.10;99.90;;;;;;5136940;27;20444;-60
2022/08/21 03:33:55;;;;;;;8.00;5.53;;;20.10;99.90;;;;;;5136837;27;20476;-60
2022/08/21 03:36:21;;;;;;;5.60;5.17;;;20.00;99.90;;;;;;5136819;27;20935;-60
2022/08/21 03:38:49;;;;;;;5.93;5.10;;;20.00;99.90;;;;;;5136741;27;21027;-60
2022/08/21 03:41:16;;;;;;;5.20;4.77;;;20.00;99.90;;;;;;5136928;27;20484;-60
2022/08/21 03:43:42;;;;;;;5.97;5.43;;;20.00;99.90;;;;;;5136558;27;21010;-60
2022/08/21 03:46:09;;;;;;;6.50;5.23;;;20.00;99.90;;;;;;5136670;27;20437;-60
2022/08/21 03:48:37;;;;;;;5.17;4.60;;;19.90;99.90;;;;;;5136397;27;20472;-60
2022/08/21 03:51:04;;;;;;;5.07;4.60;;;19.90;99.90;;;;;;5136814;27;20872;-60
2022/08/21 03:53:30;;;;;;;9.00;4.77;;;19.80;99.90;;;;;;5136577;27;20516;-60
2022/08/21 03:55:59;;;;;;;5.73;5.33;;;19.80;99.90;;;;;;5136529;27;20445;-60
2022/08/21 03:58:28;;;;;;;5.50;5.00;;;19.80;99.90;;;;;;5136488;27;20463;-60
2022/08/21 04:00:59;;;;;;;4.93;4.50;;;19.80;99.90;;;;;;5136392;27;20440;-60
2022/08/21 04:03:26;;;;;;;6.50;5.33;;;19.80;99.90;;;;;;5136206;27;20927;-60
2022/08/21 04:05:53;;;;;;;6.27;4.90;;;19.80;99.90;;;;;;5136580;27;20455;-60
2022/08/21 04:08:20;;;;;;;9.50;5.63;;;19.80;99.90;;;;;;5136381;27;20449;-60
2022/08/21 04:10:50;;;;;;;6.43;5.17;;;19.80;99.90;;;;;;5136262;27;20451;-60
2022/08/21 04:13:18;;;;;;;5.57;5.00;;;19.80;99.90;;;;;;5136307;27;20469;-60
2022/08/21 04:15:45;;;;;;;6.43;4.70;;;19.80;99.90;;;;;;5136294;27;20445;-60
2022/08/21 04:18:11;;;;;;;5.70;5.30;;;19.80;99.90;;;;;;5136277;27;20451;-60
2022/08/21 04:20:39;;;;;;;6.83;5.00;;;19.80;99.90;;;;;;5136142;27;20539;-60
2022/08/21 04:23:06;;;;;;;4.60;4.30;;;19.80;99.90;;;;;;5135997;27;20799;-60
2022/08/21 04:25:33;;;;;;;6.33;5.10;;;19.80;99.90;;;;;;5135924;27;20462;-60
2022/08/21 04:27:59;;;;;;;4.57;4.17;;;19.90;99.90;;;;;;5135890;27;20476;-61
2022/08/21 04:30:27;;;;;;;5.60;4.37;;;19.90;99.90;;;;;;5135735;27;20940;-60
2022/08/21 04:32:53;;;;;;;5.60;4.20;;;19.90;99.90;;;;;;5135817;27;20574;-61
2022/08/21 04:35:23;;;;;;;5.07;4.67;;;19.90;99.90;;;;;;5135826;27;20451;-60
2022/08/21 04:37:50;;;;;;;6.40;4.40;;;19.80;99.90;;;;;;5135844;27;20476;-60
2022/08/21 04:40:18;;;;;;;4.80;4.40;;;19.90;99.90;;;;;;5135765;27;20484;-60
2022/08/21 04:42:49;;;;;;;4.10;3.70;;;19.90;99.90;;;;;;5135339;27;20535;-60
2022/08/21 04:45:19;;;;;;;6.70;3.87;;;19.90;99.90;;;;;;5135754;27;20452;-60
2022/08/21 04:47:47;;;;;;;6.37;3.90;;;19.80;99.90;;;;;;5135602;27;20472;-60
2022/08/21 04:50:14;;;;;;;7.37;4.40;;;19.90;99.90;;;;;;5135444;27;20437;-60
2022/08/21 04:52:41;;;;;;;5.23;3.57;;;19.90;99.90;;;;;;5135379;27;20517;-60
2022/08/21 04:55:07;;;;;;;6.60;3.80;;;19.80;99.90;;;;;;5134558;27;20480;-60
2022/08/21 04:57:35;;;;;;;5.20;3.33;;;19.70;99.90;;;;;;5135437;27;20464;-60
2022/08/21 05:00:04;;;;;;;7.13;3.97;;;19.70;99.90;;;;;;5135374;27;20448;-60
2022/08/21 05:02:32;;;;;;;3.93;3.53;;;19.70;99.90;;;;;;5135185;27;20537;-60
2022/08/21 05:05:00;;;;;;;10.77;3.70;;;19.70;99.90;;;;;;5135170;27;20785;-60
2022/08/21 05:07:30;;;;;;;5.00;3.90;;;19.70;99.90;;;;;;5135052;27;20535;-60
2022/08/21 05:09:57;;;;;;;4.93;3.43;;;19.70;99.90;;;;;;5135017;27;20789;-60
2022/08/21 05:12:23;;;;;;;3.80;3.50;;;19.70;99.90;;;;;;5135037;27;20447;-60
2022/08/21 05:14:50;;;;;;;4.60;3.60;;;19.70;99.90;;;;;;5135010;27;21005;-60
2022/08/21 05:17:16;;;;;;;4.30;3.73;;;19.70;99.90;;;;;;5134921;27;20811;-60
2022/08/21 05:19:43;;;;;;;7.13;3.43;;;19.70;99.90;;;;;;5134883;27;20867;-60
2022/08/21 05:22:11;;;;;;;7.03;3.77;;;19.70;99.90;;;;;;5134680;27;20441;-61
2022/08/21 05:24:37;;;;;;;8.67;3.50;;;19.70;99.90;;;;;;5134631;27;20440;-60
2022/08/21 05:27:06;;;;;;;10.43;4.17;;;19.70;99.90;;;;;;5134881;27;20854;-61
2022/08/21 05:29:33;;;;;;;3.60;3.30;;;19.70;99.90;;;;;;5134712;27;20808;-60
2022/08/21 05:31:59;;;;;;;4.17;2.63;;;19.70;99.90;;;;;;5134676;27;20538;-60
2022/08/21 05:34:26;;;;;;;3.43;3.13;;;19.70;99.90;;;;;;5134531;27;20476;-60
2022/08/21 05:36:52;;;;;;;6.07;3.40;;;19.70;99.90;;;;;;5134291;27;20451;-60
2022/08/21 05:39:20;;;;;;;5.30;3.53;;;19.70;99.90;;;;;;5134633;27;20444;-60
2022/08/21 05:41:47;;;;;;;6.10;3.27;;;19.80;99.90;;;;;;5134541;27;20517;-60
2022/08/21 05:44:14;;;;;;;3.97;3.13;;;19.80;99.90;;;;;;5134669;27;20449;-60
2022/08/21 05:46:40;;;;;;;3.37;3.07;;;19.80;99.90;;;;;;5134257;27;20474;-60
2022/08/21 05:49:07;;;;;;;5.10;3.30;;;19.80;99.90;;;;;;5134739;27;20574;-60
2022/08/21 05:51:33;;;;;;;3.77;2.70;;;19.70;99.90;;;;;;5134118;27;20462;-60
2022/08/21 05:54:00;;;;;;;3.10;2.90;;;19.70;99.90;;;;;;5134131;27;20983;-60
2022/08/21 05:56:28;;;;;;;9.23;3.30;;;19.70;99.90;;;;;;5134361;27;20444;-60
2022/08/21 05:58:55;;;;;;;3.37;3.00;;;19.70;99.90;;;;;;5134272;27;20451;-60
2022/08/21 06:01:21;;;;;;;2.30;2.10;;;19.70;99.90;;;;;;5134114;27;20444;-60
2022/08/21 06:03:48;;;;;;;4.00;3.07;;;19.70;99.90;;;;;;5134092;27;20482;-60
2022/08/21 06:06:15;;;;;;;4.70;2.83;;;19.80;99.90;;;;;;5133830;27;20455;-60
2022/08/21 06:08:42;;;;;;;3.50;2.60;;;19.80;99.90;;;;;;5133983;27;20805;-60
2022/08/21 06:11:09;;;;;;;6.13;2.30;;;19.80;99.90;;;;;;5134334;27;20445;-60
2022/08/21 06:13:38;;;;;;;5.00;2.80;;;19.80;99.90;;;;;;5134188;27;20471;-60
2022/08/21 06:16:08;;;;;;;5.73;3.00;;;19.80;99.90;;;;;;5133946;27;20453;-60
2022/08/21 06:18:34;;;;;;;2.97;2.67;;;19.90;99.90;;;;;;5133724;27;20888;-60
2022/08/21 06:21:01;;;;;;;3.87;2.40;;;19.90;99.90;;;;;;5133867;28;20454;-60
2022/08/21 06:23:27;;;;;;;3.37;2.50;;;20.00;99.90;;;;;;5133673;28;20947;-60
2022/08/21 06:25:54;;;;;;;3.97;2.80;;;20.00;99.90;;;;;;5133954;28;20445;-60
2022/08/21 06:28:21;;;;;;;3.23;2.60;;;20.00;99.90;;;;;;5133836;28;20799;-60
2022/08/21 06:30:49;;;;;;;5.13;2.40;;;20.10;99.90;;;;;;5133750;28;20480;-60
2022/08/21 06:33:15;;;;;;;3.27;1.97;;;20.10;99.90;;;;;;5133615;28;20451;-60
2022/08/21 06:35:42;;;;;;;7.97;2.30;;;20.10;99.90;;;;;;5133488;28;20995;-60
2022/08/21 06:38:08;;;;;;;4.00;2.30;;;20.10;99.90;;;;;;5133852;28;20447;-60
2022/08/21 06:40:35;;;;;;;6.00;2.60;;;20.20;99.90;;;;;;5133782;28;20444;-60
2022/08/21 06:43:08;;;;;;;3.37;2.30;;;20.20;99.90;;;;;;5133616;28;20445;-60
2022/08/21 06:45:35;;;;;;;6.47;2.20;;;20.30;99.90;;;;;;5133643;28;20808;-60
2022/08/21 06:48:03;;;;;;;2.90;2.07;;;20.30;99.90;;;;;;5133314;28;20479;-60
2022/08/21 06:50:30;;;;;;;4.83;2.40;;;20.40;99.90;;;;;;5133737;28;20556;-60
2022/08/21 06:53:04;;;;;;;4.77;1.90;;;20.40;99.90;;;;;;5133436;28;20936;-60
2022/08/21 06:55:30;;;;;;;4.40;2.20;;;20.40;99.90;;;;;;5133559;28;20483;-60
2022/08/21 06:57:57;;;;;;;4.93;2.03;;;20.50;99.90;;;;;;5133725;28;20451;-60
2022/08/21 07:00:23;;;;;;;3.80;2.20;;;20.50;99.90;;;;;;5133622;28;20456;-60
2022/08/21 07:02:50;;;;;;;7.13;2.30;;;20.50;99.90;;;;;;5133610;27;20503;-60
2022/08/21 07:05:18;;;;;;;3.67;2.10;;;20.60;99.90;;;;;;5133605;28;20444;-60
2022/08/21 07:07:44;;;;;;;7.13;2.20;;;20.70;99.90;;;;;;5133470;28;20481;-60
2022/08/21 07:10:11;;;;;;;6.53;2.43;;;20.70;99.90;;;;;;5133293;28;20924;-60
2022/08/21 07:12:37;;;;;;;3.30;2.20;;;20.90;99.90;;;;;;5133249;28;20444;-60
2022/08/21 07:15:04;;;;;;;4.17;2.30;;;20.90;99.90;;;;;;5133252;28;20877;-60
2022/08/21 07:17:31;;;;;;;3.70;1.90;;;20.90;99.90;;;;;;5133506;27;20482;-60
2022/08/21 07:19:58;;;;;;;5.37;2.20;;;21.00;99.90;;;;;;5137361;27;20447;-60
2022/08/21 07:22:27;;;;;;;3.23;2.23;;;21.00;99.90;;;;;;5137155;27;20477;-60
2022/08/21 07:24:54;;;;;;;4.80;2.23;;;21.10;99.90;;;;;;5137119;27;20443;-60
2022/08/21 07:27:20;;;;;;;9.87;3.10;;;21.10;99.90;;;;;;5136941;27;20531;-60
2022/08/21 07:29:47;;;;;;;3.90;1.87;;;21.00;99.90;;;;;;5137216;27;20472;-60
2022/08/21 07:32:14;;;;;;;6.27;1.53;;;21.10;99.90;;;;;;5137140;27;20447;-60
2022/08/21 07:34:41;;;;;;;5.10;1.97;;;21.20;99.90;;;;;;5137006;27;20559;-60
2022/08/21 07:37:07;;;;;;;4.60;2.00;;;21.20;99.90;;;;;;5136880;27;20441;-60
2022/08/21 07:39:36;;;;;;;1.90;1.77;;;21.20;99.90;;;;;;5136841;27;20523;-60
2022/08/21 07:42:03;;;;;;;3.33;1.60;;;21.30;99.90;;;;;;5136688;27;20501;-60
2022/08/21 07:44:29;;;;;;;6.33;1.60;;;21.40;99.90;;;;;;5136902;27;20456;-60
2022/08/21 07:46:56;;;;;;;2.87;1.57;;;21.00;99.90;;;;;;5136547;27;20444;-60
2022/08/21 07:49:22;;;;;;;6.20;2.10;;;21.10;99.90;;;;;;5137038;27;20445;-60
2022/08/21 07:51:49;;;;;;;2.93;1.70;;;21.20;99.90;;;;;;5136382;27;20452;-60
2022/08/21 07:54:15;;;;;;;4.30;1.80;;;21.20;99.90;;;;;;5136407;27;20889;-61
2022/08/21 07:56:43;;;;;;;2.70;1.50;;;21.30;99.90;;;;;;5136403;27;20486;-60
2022/08/21 07:59:09;;;;;;;5.53;1.80;;;21.40;99.90;;;;;;5136648;27;20451;-60
2022/08/21 08:01:36;;;;;;;2.47;1.70;;;21.40;99.90;;;;;;5136385;27;20451;-60
2022/08/21 08:04:03;;;;;;;3.67;1.73;;;21.40;99.90;;;;;;5136375;27;20547;-60
2022/08/21 08:06:30;;;;;;;3.97;1.47;;;21.50;99.90;;;;;;5136286;27;20451;-60
2022/08/21 08:08:57;;;;;;;2.13;1.60;;;21.60;99.90;;;;;;5136150;27;20478;-60
2022/08/21 08:11:23;;;;;;;3.20;1.40;;;21.60;99.90;;;;;;5136115;27;20449;-60
2022/08/21 08:13:53;;;;;;;3.00;1.90;;;21.70;99.90;;;;;;5136240;27;20451;-60
2022/08/21 08:16:20;;;;;;;3.13;1.40;;;21.80;99.90;;;;;;5136251;27;20556;-60
2022/08/21 08:18:46;;;;;;;2.20;1.33;;;21.80;99.90;;;;;;5136047;27;20449;-60
2022/08/21 08:21:14;;;;;;;2.57;1.53;;;21.80;99.90;;;;;;5136054;27;20535;-60
2022/08/21 08:23:40;;;;;;;2.27;1.40;;;21.60;99.90;;;;;;5135995;27;20441;-60
2022/08/21 08:26:07;;;;;;;3.43;1.50;;;21.70;99.90;;;;;;5136078;27;20455;-60
2022/08/21 08:28:34;;;;;;;4.43;1.87;;;21.90;99.90;;;;;;5135876;27;20477;-60
2022/08/21 08:31:02;;;;;;;4.17;1.90;;;22.10;99.90;;;;;;5134984;27;20543;-60
2022/08/21 08:33:29;;;;;;;7.33;2.33;;;21.90;99.90;;;;;;5135705;27;20540;-60
2022/08/21 08:35:56;;;;;;;4.50;1.93;;;21.70;99.90;;;;;;5135529;27;21001;-60
2022/08/21 08:38:24;;;;;;;2.30;1.50;;;21.90;99.90;;;;;;5135626;27;20467;-60
2022/08/21 08:40:56;;;;;;;4.20;1.73;;;21.70;99.90;;;;;;5135710;27;20513;-60
2022/08/21 08:43:22;;;;;;;2.27;1.40;;;21.90;99.90;;;;;;5135629;27;20449;-60
2022/08/21 08:45:52;;;;;;;3.47;1.77;;;22.00;99.90;;;;;;5135572;27;20943;-60
2022/08/21 08:48:34;;;;;;;2.90;1.80;;;22.20;99.90;;;;;;5135421;27;20479;-60
2022/08/21 08:51:02;;;;;;;12.20;1.97;;;22.30;99.90;;;;;;5135613;27;20811;-60
2022/08/21 08:53:32;;;;;;;2.57;1.27;;;22.30;99.90;;;;;;5135289;27;20939;-61
2022/08/21 08:56:02;;;;;;;2.07;1.10;;;22.40;99.90;;;;;;5135323;27;20830;-60
2022/08/21 08:58:31;;;;;;;2.23;1.50;;;22.50;99.90;;;;;;5135190;27;20932;-60
2022/08/21 09:00:59;;;;;;;2.93;1.20;;;22.30;99.90;;;;;;5135119;27;20444;-60
2022/08/21 09:03:29;;;;;;;5.83;1.90;;;22.40;99.90;;;;;;5135206;27;20532;-60
2022/08/21 09:06:03;;;;;;;4.50;1.60;;;22.40;99.90;;;;;;5135208;27;20883;-60
2022/08/21 09:08:49;;;;;;;1.90;1.30;;;22.50;99.90;;;;;;5135187;27;20536;-60
2022/08/21 09:11:27;;;;;;;4.17;1.87;;;22.60;99.90;;;;;;5134970;27;20460;-60
2022/08/21 09:14:02;;;;;;;3.40;1.50;;;22.70;99.90;;;;;;5135133;27;20441;-60
2022/08/21 09:16:38;;;;;;;3.63;1.40;;;22.60;99.90;;;;;;5134932;27;20890;-60
2022/08/21 09:19:18;;;;;;;2.80;1.70;;;22.30;99.90;;;;;;5134834;27;21030;-60
2022/08/21 09:21:52;;;;;;;5.40;1.83;;;22.40;99.90;;;;;;5134822;27;20480;-60
2022/08/21 09:24:28;;;;;;;2.30;1.40;;;22.60;99.90;;;;;;5135051;27;20444;-60
2022/08/21 09:27:02;;;;;;;2.30;1.33;;;22.40;99.90;;;;;;5134871;27;20440;-60
2022/08/21 09:29:32;;;;;;;3.50;1.60;;;22.50;99.90;;;;;;5134848;27;20878;-60
2022/08/21 09:31:59;;;;;;;2.10;1.17;;;22.50;99.90;;;;;;5134855;27;20437;-60
2022/08/21 09:34:28;;;;;;;4.33;1.80;;;22.30;99.90;;;;;;5134431;27;20444;-60
2022/08/21 09:36:55;;;;;;;4.43;1.93;;;22.20;99.90;;;;;;5134715;27;20613;-60
2022/08/21 09:39:27;;;;;;;4.77;1.80;;;22.30;99.90;;;;;;5134639;27;20893;-60
2022/08/21 09:41:58;;;;;;;3.47;1.27;;;22.40;99.90;;;;;;5134292;27;20535;-60
2022/08/21 09:44:27;;;;;;;2.17;1.47;;;22.70;99.90;;;;;;5134091;27;20444;-60
2022/08/21 09:46:53;;;;;;;5.53;1.60;;;22.50;99.90;;;;;;5134019;27;20445;-60
2022/08/21 09:49:29;;;;;;;2.27;1.97;;;22.60;99.90;;;;;;5134497;27;20540;-60
2022/08/21 09:51:57;;;;;;;3.73;1.57;;;22.70;99.90;;;;;;5134343;27;20451;-60
2022/08/21 09:54:29;;;;;;;3.60;1.73;;;22.60;99.90;;;;;;5134187;27;20445;-60
2022/08/21 09:59:43;;;;;;;4.60;1.83;;;22.70;99.90;;;;;;5134180;27;20511;-60
2022/08/21 10:02:35;;;;;;;1.83;1.40;;;22.40;99.90;;;;;;5134172;27;20451;-61
2022/08/21 10:05:16;;;;;;;1.90;1.43;;;22.40;99.90;;;;;;5113879;27;20452;-60
2022/08/21 10:07:43;;;;;;;2.80;1.67;;;22.50;99.90;;;;;;5133997;27;20476;-60
2022/08/21 10:10:15;;;;;;;4.23;2.03;;;22.60;99.90;;;;;;5134290;27;20523;-59
2022/08/21 10:12:50;;;;;;;2.23;1.73;;;22.80;99.90;;;;;;5134080;27;20444;-60
2022/08/21 10:15:23;;;;;;;2.83;1.73;;;23.00;99.90;;;;;;5133959;27;20476;-59
2022/08/21 10:18:04;;;;;;;3.10;1.40;;;23.20;99.90;;;;;;5133991;27;20495;-60
2022/08/21 10:20:39;;;;;;;2.07;1.80;;;23.10;99.90;;;;;;5133916;27;20464;-60
2022/08/21 10:23:21;;;;;;;5.33;2.03;;;23.10;99.90;;;;;;5133703;27;20935;-60
2022/08/21 10:25:52;;;;;;;5.53;1.87;;;23.00;99.90;;;;;;5134200;28;20870;-59
2022/08/21 10:28:28;;;;;;;3.17;2.07;;;23.20;99.90;;;;;;5133880;28;20448;-60
2022/08/21 10:31:00;;;;;;;5.90;1.47;;;22.90;99.90;;;;;;5133720;28;20527;-60
2022/08/21 10:33:38;;;;;;;2.57;1.60;;;23.10;99.90;;;;;;5134075;28;20455;-60
2022/08/21 10:36:13;;;;;;;3.97;1.77;;;23.10;99.90;;;;;;5133728;28;20579;-60
2022/08/21 10:38:54;;;;;;;2.00;1.20;;;23.20;99.90;;;;;;5133647;27;20444;-60
2022/08/21 10:41:44;;;;;;;4.63;1.80;;;23.30;99.90;;;;;;5133523;28;20800;-60
2022/08/21 10:44:23;;;;;;;3.03;1.67;;;23.50;99.90;;;;;;5133509;27;20486;-60
2022/08/21 10:46:57;;;;;;;4.03;1.37;;;23.70;99.90;;;;;;5133476;28;20444;-60
2022/08/21 10:49:33;;;;;;;1.97;1.40;;;23.80;99.90;;;;;;5133752;28;20452;-60
2022/08/21 10:52:29;;;;;;;1.87;1.37;;;23.80;99.90;;;;;;5133739;27;20810;-60
2022/08/21 10:55:03;;;;;;;4.00;1.90;;;23.90;99.90;;;;;;5137711;27;20479;-60
2022/08/21 10:57:36;;;;;;;4.30;1.60;;;24.00;99.90;;;;;;5137712;27;20494;-60
2022/08/21 11:00:09;;;;;;;6.10;1.73;;;24.10;99.90;;;;;;5137507;27;20444;-60
2022/08/21 11:02:41;;;;;;;4.13;1.67;;;24.30;99.90;;;;;;5137587;27;20501;-60
2022/08/21 11:05:13;;;;;;;2.70;1.70;;;24.20;99.90;;;;;;5137477;27;20448;-60
2022/08/21 11:07:48;;;;;;;4.33;1.93;;;24.40;99.90;;;;;;5137420;27;20451;-60
2022/08/21 11:10:21;;;;;;;3.00;1.60;;;24.50;99.90;;;;;;5137114;27;20444;-60
2022/08/21 11:12:53;;;;;;;2.40;1.80;;;24.60;99.90;;;;;;5137469;27;20480;-60
2022/08/21 11:15:34;;;;;;;2.63;1.50;;;24.50;99.90;;;;;;5137316;27;20858;-60
2022/08/21 11:18:10;;;;;;;3.07;1.30;;;24.50;99.90;;;;;;5137289;27;20444;-60
2022/08/21 11:20:43;;;;;;;4.40;1.70;;;24.70;99.90;;;;;;5136935;27;20436;-60
2022/08/21 11:23:17;;;;;;;5.00;1.60;;;24.60;99.90;;;;;;5137001;27;20445;-60
2022/08/21 11:25:49;;;;;;;3.60;1.90;;;24.60;99.90;;;;;;5137023;27;20803;-60
2022/08/21 11:28:21;;;;;;;4.37;2.20;;;24.50;99.90;;;;;;5137381;27;20448;-60
2022/08/21 11:30:55;;;;;;;2.47;1.47;;;24.40;99.90;;;;;;5137121;27;20528;-60
2022/08/21 11:33:32;;;;;;;9.63;3.50;;;24.70;99.90;;;;;;5136813;27;20462;-60
2022/08/21 11:36:06;;;;;;;4.33;1.60;;;24.90;99.90;;;;;;5137036;27;20484;-60
2022/08/21 11:38:40;;;;;;;2.43;2.07;;;25.10;99.90;;;;;;5137007;27;20444;-60
2022/08/21 11:41:17;;;;;;;2.17;1.60;;;25.10;99.90;;;;;;5136736;27;20447;-60
2022/08/21 11:43:47;;;;;;;4.77;2.03;;;25.20;99.90;;;;;;5136635;27;20943;-59
2022/08/21 11:46:32;;;;;;;2.50;1.67;;;25.40;99.90;;;;;;5136905;27;20885;-60
2022/08/21 11:49:17;;;;;;;2.17;1.33;;;25.30;99.90;;;;;;5136463;27;21057;-60
2022/08/21 11:51:52;;;;;;;4.80;1.77;;;25.00;99.90;;;;;;5136540;27;20463;-61
2022/08/21 11:54:27;;;;;;;3.20;1.50;;;24.80;99.90;;;;;;5136782;27;20497;-60
2022/08/21 11:56:58;;;;;;;1.53;1.40;;;25.10;99.90;;;;;;5136252;27;20991;-60
2022/08/21 11:59:33;;;;;;;6.00;1.80;;;24.60;99.90;;;;;;5136566;27;20444;-60
2022/08/21 12:02:00;;;;;;;3.53;1.80;;;24.50;99.90;;;;;;5136326;27;20946;-60
2022/08/21 12:04:30;;;;;;;1.83;1.27;;;24.80;99.90;;;;;;5134767;27;20445;-60
2022/08/21 12:07:10;;;;;;;2.17;1.43;;;25.20;99.90;;;;;;5136184;27;20936;-60
2022/08/21 12:09:39;;;;;;;2.70;1.50;;;25.40;99.90;;;;;;5136574;27;20541;-60
2022/08/21 12:12:11;;;;;;;2.60;1.50;;;25.50;99.90;;;;;;5136275;27;20492;-60
2022/08/21 12:14:40;;;;;;;4.80;1.73;;;25.30;99.90;;;;;;5136170;27;20460;-60
2022/08/21 12:17:08;;;;;;;8.50;2.20;;;25.40;99.90;;;;;;5136176;27;21017;-60
2022/08/21 12:19:36;;;;;;;4.20;1.50;;;25.40;99.90;;;;;;5136181;27;20445;-60
2022/08/21 12:22:10;;;;;;;3.87;2.00;;;25.40;99.90;;;;;;5136343;27;20540;-59
2022/08/21 12:24:41;;;;;;;3.60;1.60;;;25.30;99.90;;;;;;5135958;27;20803;-59
2022/08/21 12:27:24;;;;;;;3.90;1.60;;;24.80;99.90;;;;;;5136405;27;20520;-59
2022/08/21 12:29:54;;;;;;;4.90;1.97;;;24.70;99.90;;;;;;5136029;27;20570;-59
2022/08/21 12:32:25;;;;;;;5.00;1.70;;;24.80;99.90;;;;;;5135686;27;20471;-59
2022/08/21 12:34:58;;;;;;;4.10;1.97;;;24.70;99.90;;;;;;5135759;27;20448;-59
2022/08/21 12:37:30;;;;;;;2.40;1.33;;;24.90;99.90;;;;;;5135624;27;20507;-59
2022/08/21 12:40:01;;;;;;;3.23;1.83;;;25.20;99.90;;;;;;5135637;27;20448;-59
2022/08/21 12:42:34;;;;;;;2.90;1.47;;;25.40;99.90;;;;;;5135738;27;20846;-59
2022/08/21 12:45:05;;;;;;;2.60;1.97;;;25.70;99.90;;;;;;5135521;27;20445;-59
2022/08/21 12:47:37;;;;;;;2.37;1.50;;;25.90;99.90;;;;;;5135552;27;20893;-59
2022/08/21 12:50:07;;;;;;;2.03;1.40;;;25.80;99.90;;;;;;5135553;27;20535;-59
2022/08/21 12:52:37;;;;;;;5.00;1.60;;;25.90;99.90;;;;;;5135567;27;20445;-59
2022/08/21 12:55:06;;;;;;;2.07;1.50;;;26.10;99.90;;;;;;5135452;27;20477;-60
2022/08/21 12:57:32;;;;;;;2.10;1.40;;;26.20;99.90;;;;;;5135275;27;20480;-60
2022/08/21 13:00:01;;;;;;;4.20;1.30;;;26.00;99.90;;;;;;5135313;27;20519;-60